createdAt,value
2018-02-15T00:00:19.029Z,28.10
2018-02-15T00:01:18.928Z,26.60
2018-02-15T00:02:18.880Z,26.30
2018-02-15T00:03:18.830Z,27.30
2018-02-15T00:04:18.761Z,28.20
2018-02-15T00:05:18.735Z,25.60
2018-02-15T00:06:18.692Z,24.60
2018-02-15T00:07:20.144Z,25.40
2018-02-15T00:08:18.596Z,27.50
2018-02-15T00:09:18.612Z,24.90
2018-02-15T00:10:18.475Z,25.40
2018-02-15T00:11:18.508Z,24.20
2018-02-15T00:12:18.401Z,25.80
2018-02-15T00:13:18.331Z,25.90
2018-02-15T00:14:18.394Z,27.40
2018-02-15T00:15:19.057Z,28.50
2018-02-15T00:16:18.228Z,27.80
2018-02-15T00:17:18.186Z,28.70
2018-02-15T00:18:18.225Z,27.70
2018-02-15T00:19:18.198Z,26.40
2018-02-15T00:20:18.109Z,27.00
2018-02-15T00:21:18.555Z,27.00
2018-02-15T00:22:18.004Z,25.90
2018-02-15T00:23:18.556Z,25.50
2018-02-15T00:24:17.890Z,26.20
2018-02-15T00:25:18.558Z,26.50
2018-02-15T00:26:17.667Z,25.60
2018-02-15T00:27:17.641Z,25.70
2018-02-15T00:28:17.600Z,25.50
2018-02-15T00:29:17.538Z,24.80
2018-02-15T00:30:17.494Z,25.60
2018-02-15T00:31:17.427Z,25.40
2018-02-15T00:32:17.531Z,24.20
2018-02-15T00:33:17.418Z,24.30
2018-02-15T00:34:17.434Z,25.70
2018-02-15T00:35:17.365Z,25.00
2018-02-15T00:36:17.159Z,27.40
2018-02-15T00:37:18.053Z,23.60
2018-02-15T00:38:17.122Z,25.50
2018-02-15T00:39:17.200Z,25.70
2018-02-15T00:40:16.977Z,24.80
2018-02-15T00:41:16.954Z,23.60
2018-02-15T00:42:16.892Z,24.20
2018-02-15T00:43:16.990Z,23.50
2018-02-15T00:44:16.755Z,23.80
2018-02-15T00:45:16.768Z,23.20
2018-02-15T00:46:17.559Z,23.80
2018-02-15T00:47:16.704Z,21.90
2018-02-15T00:48:16.595Z,23.00
2018-02-15T00:49:16.526Z,22.60
2018-02-15T00:50:16.619Z,23.40
2018-02-15T00:51:16.434Z,22.50
2018-02-15T00:52:16.513Z,23.60
2018-02-15T00:53:17.057Z,21.40
2018-02-15T00:54:16.290Z,21.20
2018-02-15T00:55:16.400Z,22.40
2018-02-15T00:56:16.373Z,22.90
2018-02-15T00:57:17.055Z,22.60
2018-02-15T00:58:16.254Z,22.00
2018-02-15T00:59:16.226Z,21.90
2018-02-15T01:00:15.997Z,23.00
2018-02-15T01:01:16.050Z,21.70
2018-02-15T01:02:15.925Z,22.50
2018-02-15T01:03:15.889Z,21.00
2018-02-15T01:04:15.940Z,22.30
2018-02-15T01:05:15.763Z,22.40
2018-02-15T01:06:16.557Z,22.00
2018-02-15T01:07:15.784Z,21.90
2018-02-15T01:08:15.733Z,22.60
2018-02-15T01:09:15.664Z,23.80
2018-02-15T01:10:15.677Z,21.50
2018-02-15T01:11:15.451Z,23.00
2018-02-15T01:12:15.549Z,21.60
2018-02-15T01:13:15.415Z,23.00
2018-02-15T01:14:15.407Z,21.30
2018-02-15T01:15:16.053Z,21.60
2018-02-15T01:16:15.235Z,21.50
2018-02-15T01:17:15.311Z,21.60
2018-02-15T01:18:15.291Z,22.00
2018-02-15T01:19:15.167Z,20.20
2018-02-15T01:20:15.159Z,21.40
2018-02-15T01:21:15.556Z,20.90
2018-02-15T01:22:15.102Z,21.90
2018-02-15T01:23:15.554Z,20.60
2018-02-15T01:24:14.816Z,21.90
2018-02-15T01:25:14.934Z,22.20
2018-02-15T01:26:14.693Z,23.00
2018-02-15T01:27:14.682Z,22.00
2018-02-15T01:28:14.752Z,22.20
2018-02-15T01:29:14.743Z,23.30
2018-02-15T01:30:14.506Z,22.40
2018-02-15T01:31:14.563Z,20.90
2018-02-15T01:32:14.464Z,21.40
2018-02-15T01:33:14.406Z,21.80
2018-02-15T01:34:14.406Z,23.60
2018-02-15T01:35:14.431Z,22.70
2018-02-15T01:36:14.301Z,21.90
2018-02-15T01:37:14.434Z,21.20
2018-02-15T01:38:14.293Z,21.30
2018-02-15T01:39:14.123Z,21.80
2018-02-15T01:40:14.205Z,21.20
2018-02-15T01:41:14.564Z,21.00
2018-02-15T01:42:14.110Z,22.00
2018-02-15T01:43:13.998Z,23.40
2018-02-15T01:44:13.982Z,23.20
2018-02-15T01:45:13.976Z,22.30
2018-02-15T01:46:13.789Z,21.50
2018-02-15T01:47:13.760Z,22.90
2018-02-15T01:48:14.560Z,23.20
2018-02-15T01:49:14.558Z,23.60
2018-02-15T01:50:13.591Z,21.60
2018-02-15T01:51:13.538Z,23.50
2018-02-15T01:52:13.641Z,22.80
2018-02-15T01:53:14.058Z,23.10
2018-02-15T01:54:13.566Z,22.30
2018-02-15T01:55:13.339Z,22.90
2018-02-15T01:56:13.364Z,24.50
2018-02-15T01:57:14.055Z,23.60
2018-02-15T01:58:13.262Z,23.70
2018-02-15T01:59:14.056Z,23.50
2018-02-15T02:00:13.238Z,24.10
2018-02-15T02:01:13.170Z,24.30
2018-02-15T02:02:13.120Z,23.90
2018-02-15T02:03:12.920Z,23.70
2018-02-15T02:04:12.888Z,23.90
2018-02-15T02:05:13.557Z,23.30
2018-02-15T02:06:12.904Z,24.60
2018-02-15T02:07:12.873Z,25.30
2018-02-15T02:08:12.855Z,23.80
2018-02-15T02:09:12.775Z,23.50
2018-02-15T02:10:12.688Z,23.00
2018-02-15T02:11:12.642Z,23.50
2018-02-15T02:12:12.622Z,22.00
2018-02-15T02:13:12.579Z,24.40
2018-02-15T02:14:12.394Z,23.90
2018-02-15T02:15:12.316Z,23.30
2018-02-15T02:16:13.063Z,22.90
2018-02-15T02:17:12.273Z,22.80
2018-02-15T02:18:12.373Z,24.50
2018-02-15T02:19:12.288Z,22.80
2018-02-15T02:20:12.187Z,23.30
2018-02-15T02:21:12.046Z,22.50
2018-02-15T02:22:12.021Z,23.20
2018-02-15T02:23:12.091Z,23.60
2018-02-15T02:24:12.027Z,23.00
2018-02-15T02:25:11.880Z,23.50
2018-02-15T02:26:11.778Z,24.70
2018-02-15T02:27:11.723Z,23.00
2018-02-15T02:28:11.904Z,24.00
2018-02-15T02:29:11.650Z,22.30
2018-02-15T02:30:11.580Z,23.80
2018-02-15T02:31:12.059Z,24.50
2018-02-15T02:32:11.538Z,24.90
2018-02-15T02:33:11.447Z,25.30
2018-02-15T02:34:11.497Z,24.50
2018-02-15T02:35:11.368Z,24.10
2018-02-15T02:36:11.323Z,24.00
2018-02-15T02:37:11.389Z,24.90
2018-02-15T02:38:11.312Z,23.60
2018-02-15T02:39:11.289Z,23.80
2018-02-15T02:40:11.233Z,25.50
2018-02-15T02:41:11.132Z,24.30
2018-02-15T02:42:11.559Z,23.00
2018-02-15T02:43:10.973Z,23.10
2018-02-15T02:44:10.917Z,23.40
2018-02-15T02:45:10.876Z,24.00
2018-02-15T02:46:10.994Z,21.90
2018-02-15T02:47:10.913Z,22.40
2018-02-15T02:48:10.735Z,24.10
2018-02-15T02:49:10.669Z,24.00
2018-02-15T02:50:10.720Z,24.10
2018-02-15T02:51:10.636Z,24.20
2018-02-15T02:52:10.557Z,24.40
2018-02-15T02:53:10.583Z,25.50
2018-02-15T02:54:10.453Z,25.20
2018-02-15T02:55:10.370Z,24.20
2018-02-15T02:56:10.384Z,23.90
2018-02-15T02:57:10.434Z,24.00
2018-02-15T02:58:11.066Z,24.80
2018-02-15T02:59:10.355Z,23.60
2018-02-15T03:00:10.101Z,22.40
2018-02-15T03:01:10.247Z,24.70
2018-02-15T03:02:10.073Z,23.10
2018-02-15T03:03:10.009Z,22.60
2018-02-15T03:04:09.965Z,24.00
2018-02-15T03:05:09.866Z,23.10
2018-02-15T03:06:10.572Z,24.30
2018-02-15T03:07:09.786Z,24.10
2018-02-15T03:08:09.900Z,24.20
2018-02-15T03:09:09.782Z,24.10
2018-02-15T03:10:09.668Z,24.40
2018-02-15T03:11:09.659Z,24.20
2018-02-15T03:12:09.703Z,24.30
2018-02-15T03:13:09.614Z,23.70
2018-02-15T03:14:09.432Z,23.70
2018-02-15T03:15:09.404Z,25.30
2018-02-15T03:16:09.512Z,25.70
2018-02-15T03:17:09.315Z,24.30
2018-02-15T03:18:10.063Z,24.50
2018-02-15T03:19:09.221Z,24.40
2018-02-15T03:20:09.306Z,24.70
2018-02-15T03:21:10.058Z,23.80
2018-02-15T03:22:09.565Z,25.70
2018-02-15T03:23:09.147Z,24.90
2018-02-15T03:24:08.970Z,24.90
2018-02-15T03:25:09.073Z,23.20
2018-02-15T03:26:08.896Z,24.40
2018-02-15T03:27:08.939Z,23.20
2018-02-15T03:28:08.900Z,23.00
2018-02-15T03:29:08.756Z,24.40
2018-02-15T03:30:08.755Z,24.60
2018-02-15T03:31:08.684Z,24.90
2018-02-15T03:32:08.704Z,22.80
2018-02-15T03:33:08.497Z,24.30
2018-02-15T03:34:08.624Z,23.00
2018-02-15T03:35:08.421Z,24.10
2018-02-15T03:36:08.407Z,23.90
2018-02-15T03:37:08.403Z,25.20
2018-02-15T03:38:08.440Z,22.40
2018-02-15T03:39:08.348Z,23.20
2018-02-15T03:40:09.062Z,23.50
2018-02-15T03:41:08.129Z,23.90
2018-02-15T03:42:08.118Z,24.70
2018-02-15T03:43:08.169Z,23.80
2018-02-15T03:44:08.562Z,25.90
2018-02-15T03:45:07.917Z,24.60
2018-02-15T03:46:07.878Z,24.90
2018-02-15T03:47:07.997Z,24.40
2018-02-15T03:48:07.803Z,24.20
2018-02-15T03:49:07.811Z,23.20
2018-02-15T03:50:07.800Z,23.90
2018-02-15T03:51:07.640Z,23.10
2018-02-15T03:52:07.626Z,23.70
2018-02-15T03:53:07.552Z,22.00
2018-02-15T03:54:07.632Z,25.20
2018-02-15T03:55:07.451Z,24.20
2018-02-15T03:56:07.535Z,23.50
2018-02-15T03:57:07.517Z,24.00
2018-02-15T03:58:07.294Z,24.70
2018-02-15T03:59:07.412Z,24.40
2018-02-15T04:00:07.374Z,24.60
2018-02-15T04:01:07.138Z,23.60
2018-02-15T04:02:07.147Z,22.70
2018-02-15T04:03:07.165Z,23.60
2018-02-15T04:04:07.092Z,23.40
2018-02-15T04:05:07.093Z,23.90
2018-02-15T04:06:06.935Z,23.20
2018-02-15T04:07:07.563Z,23.40
2018-02-15T04:08:06.963Z,23.70
2018-02-15T04:09:06.917Z,23.80
2018-02-15T04:10:06.860Z,23.40
2018-02-15T04:11:06.699Z,24.20
2018-02-15T04:12:06.627Z,24.70
2018-02-15T04:13:06.638Z,23.80
2018-02-15T04:14:06.538Z,24.80
2018-02-15T04:15:06.613Z,24.20
2018-02-15T04:16:06.541Z,24.10
2018-02-15T04:17:06.398Z,23.40
2018-02-15T04:18:06.435Z,24.70
2018-02-15T04:19:06.301Z,24.40
2018-02-15T04:20:07.072Z,24.60
2018-02-15T04:21:06.361Z,24.20
2018-02-15T04:22:06.291Z,25.10
2018-02-15T04:23:06.192Z,23.50
2018-02-15T04:24:06.563Z,23.70
2018-02-15T04:25:06.328Z,22.30
2018-02-15T04:26:05.983Z,23.50
2018-02-15T04:27:05.864Z,22.90
2018-02-15T04:28:05.832Z,23.00
2018-02-15T04:29:05.794Z,23.10
2018-02-15T04:30:05.768Z,22.60
2018-02-15T04:31:05.738Z,23.90
2018-02-15T04:32:05.688Z,23.00
2018-02-15T04:33:05.623Z,22.00
2018-02-15T04:34:05.591Z,22.30
2018-02-15T04:35:06.066Z,21.50
2018-02-15T04:36:05.430Z,21.90
2018-02-15T04:37:05.596Z,23.20
2018-02-15T04:38:06.061Z,22.20
2018-02-15T04:39:05.330Z,21.40
2018-02-15T04:40:05.415Z,21.90
2018-02-15T04:41:05.390Z,22.50
2018-02-15T04:42:05.347Z,22.00
2018-02-15T04:43:05.175Z,20.60
2018-02-15T04:44:05.096Z,20.40
2018-02-15T04:45:05.222Z,21.70
2018-02-15T04:46:05.016Z,22.30
2018-02-15T04:47:04.967Z,21.40
2018-02-15T04:48:05.562Z,21.90
2018-02-15T04:49:05.563Z,20.90
2018-02-15T04:50:04.886Z,22.30
2018-02-15T04:51:04.886Z,22.70
2018-02-15T04:52:04.756Z,20.50
2018-02-15T04:53:04.860Z,21.20
2018-02-15T04:54:04.639Z,20.80
2018-02-15T04:55:04.539Z,20.40
2018-02-15T04:56:04.514Z,20.90
2018-02-15T04:57:04.474Z,21.40
2018-02-15T04:58:04.427Z,20.90
2018-02-15T04:59:04.371Z,22.00
2018-02-15T05:00:04.311Z,21.10
2018-02-15T05:01:04.309Z,21.20
2018-02-15T05:02:04.376Z,21.00
2018-02-15T05:03:04.493Z,21.30
2018-02-15T05:04:04.175Z,19.40
2018-02-15T05:05:04.147Z,20.80
2018-02-15T05:06:04.060Z,20.50
2018-02-15T05:07:04.022Z,21.20
2018-02-15T05:08:04.132Z,20.80
2018-02-15T05:09:04.013Z,20.50
2018-02-15T05:10:03.895Z,20.00
2018-02-15T05:11:03.925Z,21.40
2018-02-15T05:12:03.750Z,22.20
2018-02-15T05:13:03.732Z,21.80
2018-02-15T05:14:03.694Z,21.20
2018-02-15T05:15:03.626Z,22.20
2018-02-15T05:16:06.167Z,21.40
2018-02-15T05:17:04.065Z,21.60
2018-02-15T05:18:03.459Z,20.80
2018-02-15T05:19:03.415Z,22.40
2018-02-15T05:20:03.368Z,22.70
2018-02-15T05:21:03.554Z,22.30
2018-02-15T05:22:03.296Z,23.50
2018-02-15T05:23:03.224Z,22.70
2018-02-15T05:24:03.196Z,23.30
2018-02-15T05:25:03.207Z,22.40
2018-02-15T05:26:03.570Z,23.10
2018-02-15T05:27:03.566Z,21.90
2018-02-15T05:28:03.154Z,22.90
2018-02-15T05:29:03.111Z,23.60
2018-02-15T05:30:02.954Z,24.00
2018-02-15T05:31:03.566Z,22.50
2018-02-15T05:32:03.573Z,23.80
2018-02-15T05:33:02.787Z,24.70
2018-02-15T05:34:03.569Z,23.90
2018-02-15T05:35:02.719Z,24.70
2018-02-15T05:36:02.679Z,24.80
2018-02-15T05:37:02.577Z,25.20
2018-02-15T05:38:02.567Z,25.20
2018-02-15T05:39:02.581Z,25.00
2018-02-15T05:40:02.587Z,25.50
2018-02-15T05:41:02.441Z,24.40
2018-02-15T05:42:02.521Z,24.30
2018-02-15T05:43:02.377Z,25.20
2018-02-15T05:44:02.287Z,25.00
2018-02-15T05:45:03.081Z,25.20
2018-02-15T05:46:02.331Z,25.20
2018-02-15T05:47:02.259Z,26.20
2018-02-15T05:48:02.108Z,26.00
2018-02-15T05:49:02.029Z,25.70
2018-02-15T05:50:02.161Z,26.20
2018-02-15T05:51:02.072Z,25.60
2018-02-15T05:52:02.014Z,26.20
2018-02-15T05:53:01.855Z,26.40
2018-02-15T05:54:01.840Z,27.00
2018-02-15T05:55:01.760Z,25.30
2018-02-15T05:56:01.750Z,26.20
2018-02-15T05:57:01.813Z,25.70
2018-02-15T05:58:01.732Z,26.50
2018-02-15T05:59:01.680Z,25.60
2018-02-15T06:00:01.579Z,26.40
2018-02-15T06:01:01.557Z,25.80
2018-02-15T06:02:01.472Z,25.60
2018-02-15T06:03:01.372Z,26.70
2018-02-15T06:04:01.426Z,26.20
2018-02-15T06:05:01.428Z,25.90
2018-02-15T06:06:01.242Z,28.30
2018-02-15T06:07:01.330Z,26.40
2018-02-15T06:08:01.195Z,27.20
2018-02-15T06:09:01.238Z,27.00
2018-02-15T06:10:01.108Z,25.80
2018-02-15T06:11:01.021Z,26.50
2018-02-15T06:12:00.972Z,25.30
2018-02-15T06:13:01.065Z,26.50
2018-02-15T06:14:00.859Z,26.90
2018-02-15T06:15:00.867Z,26.50
2018-02-15T06:16:00.773Z,27.50
2018-02-15T06:17:00.789Z,26.70
2018-02-15T06:18:00.818Z,25.90
2018-02-15T06:19:00.637Z,26.40
2018-02-15T06:20:00.611Z,26.70
2018-02-15T06:21:00.589Z,25.50
2018-02-15T06:22:00.631Z,26.90
2018-02-15T06:23:00.501Z,26.60
2018-02-15T06:24:00.426Z,28.10
2018-02-15T06:25:01.070Z,25.80
2018-02-15T06:26:00.302Z,25.70
2018-02-15T06:27:00.301Z,26.90
2018-02-15T06:28:00.260Z,28.40
2018-02-15T06:29:00.223Z,28.10
2018-02-15T06:30:01.092Z,27.20
2018-02-15T06:31:00.581Z,28.40
2018-02-15T06:32:00.092Z,27.70
2018-02-15T06:33:00.014Z,27.40
2018-02-15T06:34:00.572Z,28.80
2018-02-15T06:34:59.922Z,27.60
2018-02-15T06:35:59.964Z,26.40
2018-02-15T06:36:59.811Z,28.20
2018-02-15T06:37:59.850Z,26.60
2018-02-15T06:38:59.742Z,26.60
2018-02-15T06:39:59.738Z,26.60
2018-02-15T06:40:59.787Z,27.40
2018-02-15T06:41:59.668Z,27.10
2018-02-15T06:42:59.565Z,27.30
2018-02-15T06:43:59.476Z,29.10
2018-02-15T06:44:59.435Z,26.70
2018-02-15T06:45:59.522Z,27.30
2018-02-15T06:46:59.335Z,27.00
2018-02-15T06:47:59.528Z,26.50
2018-02-15T06:48:59.284Z,27.90
2018-02-15T06:49:59.219Z,26.60
2018-02-15T06:50:59.252Z,27.50
2018-02-15T06:51:59.100Z,27.30
2018-02-15T06:52:59.140Z,27.30
2018-02-15T06:53:59.195Z,25.90
2018-02-15T06:54:58.975Z,26.80
2018-02-15T06:55:59.131Z,27.80
2018-02-15T06:56:58.948Z,27.30
2018-02-15T06:57:59.024Z,28.20
2018-02-15T06:58:58.977Z,26.60
2018-02-15T06:59:58.796Z,28.00
2018-02-15T07:00:58.765Z,27.60
2018-02-15T07:01:58.707Z,27.10
2018-02-15T07:02:58.630Z,26.80
2018-02-15T07:03:58.621Z,26.50
2018-02-15T07:04:58.554Z,25.50
2018-02-15T07:05:58.526Z,27.30
2018-02-15T07:06:58.457Z,26.70
2018-02-15T07:07:58.418Z,26.40
2018-02-15T07:08:58.375Z,26.80
2018-02-15T07:09:58.456Z,26.30
2018-02-15T07:10:59.081Z,26.00
2018-02-15T07:11:58.211Z,27.30
2018-02-15T07:12:58.301Z,27.50
2018-02-15T07:13:58.191Z,26.90
2018-02-15T07:14:58.119Z,26.70
2018-02-15T07:15:58.236Z,27.40
2018-02-15T07:16:58.069Z,27.80
2018-02-15T07:17:57.986Z,28.00
2018-02-15T07:18:57.917Z,26.70
2018-02-15T07:19:57.892Z,27.00
2018-02-15T07:20:58.595Z,26.50
2018-02-15T07:21:57.986Z,26.20
2018-02-15T07:22:57.905Z,26.50
2018-02-15T07:23:57.836Z,26.20
2018-02-15T07:24:57.740Z,25.90
2018-02-15T07:25:57.656Z,26.10
2018-02-15T07:26:57.673Z,27.20
2018-02-15T07:27:57.663Z,25.10
2018-02-15T07:28:57.577Z,27.10
2018-02-15T07:29:57.429Z,26.20
2018-02-15T07:30:57.498Z,25.30
2018-02-15T07:31:57.344Z,26.30
2018-02-15T07:32:57.352Z,26.20
2018-02-15T07:33:57.232Z,25.50
2018-02-15T07:34:57.350Z,25.00
2018-02-15T07:35:57.193Z,24.60
2018-02-15T07:36:57.169Z,26.30
2018-02-15T07:37:57.583Z,23.90
2018-02-15T07:38:57.180Z,24.60
2018-02-15T07:39:56.962Z,25.90
2018-02-15T07:40:57.581Z,24.60
2018-02-15T07:41:56.887Z,22.70
2018-02-15T07:42:56.831Z,24.40
2018-02-15T07:43:56.841Z,24.20
2018-02-15T07:44:57.580Z,23.60
2018-02-15T07:45:56.688Z,23.60
2018-02-15T07:46:56.664Z,23.70
2018-02-15T07:47:56.809Z,25.10
2018-02-15T07:48:56.629Z,23.20
2018-02-15T07:49:56.710Z,23.50
2018-02-15T07:50:56.516Z,24.20
2018-02-15T07:51:56.532Z,24.20
2018-02-15T07:52:56.380Z,24.30
2018-02-15T07:53:56.323Z,25.50
2018-02-15T07:54:56.404Z,23.70
2018-02-15T07:55:56.241Z,24.20
2018-02-15T07:56:56.350Z,23.20
2018-02-15T07:57:56.188Z,24.80
2018-02-15T07:58:56.321Z,24.50
2018-02-15T07:59:56.103Z,24.30
2018-02-15T08:00:56.580Z,23.50
2018-02-15T08:01:56.584Z,24.20
2018-02-15T08:02:56.070Z,24.00
2018-02-15T08:03:55.946Z,22.90
2018-02-15T08:04:55.831Z,24.50
2018-02-15T08:05:55.992Z,24.20
2018-02-15T08:06:55.754Z,23.20
2018-02-15T08:07:55.721Z,23.60
2018-02-15T08:08:55.775Z,24.40
2018-02-15T08:09:55.709Z,22.40
2018-02-15T08:10:55.759Z,23.60
2018-02-15T08:11:55.569Z,22.80
2018-02-15T08:12:55.626Z,22.70
2018-02-15T08:13:55.413Z,22.20
2018-02-15T08:14:55.560Z,22.40
2018-02-15T08:15:55.348Z,21.30
2018-02-15T08:16:55.356Z,22.70
2018-02-15T08:17:55.264Z,22.40
2018-02-15T08:18:55.277Z,22.90
2018-02-15T08:19:55.175Z,23.50
2018-02-15T08:20:55.122Z,22.00
2018-02-15T08:21:55.321Z,21.30
2018-02-15T08:22:55.110Z,22.90
2018-02-15T08:23:55.052Z,22.00
2018-02-15T08:24:55.077Z,21.90
2018-02-15T08:25:55.052Z,22.40
2018-02-15T08:26:55.063Z,22.90
2018-02-15T08:27:55.011Z,22.70
2018-02-15T08:28:55.588Z,22.60
2018-02-15T08:29:54.770Z,21.60
2018-02-15T08:30:54.702Z,21.10
2018-02-15T08:31:54.757Z,22.20
2018-02-15T08:32:54.614Z,21.60
2018-02-15T08:33:54.592Z,21.60
2018-02-15T08:34:54.617Z,20.60
2018-02-15T08:35:54.465Z,22.10
2018-02-15T08:36:54.468Z,21.80
2018-02-15T08:37:54.420Z,20.40
2018-02-15T08:38:55.087Z,21.00
2018-02-15T08:39:54.492Z,21.00
2018-02-15T08:40:54.344Z,21.90
2018-02-15T08:41:54.242Z,20.90
2018-02-15T08:42:54.173Z,21.80
2018-02-15T08:43:54.176Z,19.40
2018-02-15T08:44:54.273Z,20.40
2018-02-15T08:45:54.056Z,20.40
2018-02-15T08:46:54.001Z,19.30
2018-02-15T08:47:53.981Z,19.50
2018-02-15T08:48:53.884Z,18.50
2018-02-15T08:49:53.844Z,19.10
2018-02-15T08:50:53.877Z,19.50
2018-02-15T08:51:53.809Z,19.50
2018-02-15T08:52:53.749Z,19.90
2018-02-15T08:53:53.848Z,19.80
2018-02-15T08:54:53.765Z,19.30
2018-02-15T08:55:53.628Z,19.10
2018-02-15T08:56:53.583Z,18.40
2018-02-15T08:57:53.725Z,18.30
2018-02-15T08:58:53.575Z,19.60
2018-02-15T08:59:53.612Z,19.00
2018-02-15T09:00:53.380Z,17.80
2018-02-15T09:01:53.470Z,18.30
2018-02-15T09:02:53.341Z,18.00
2018-02-15T09:03:53.416Z,17.90
2018-02-15T09:04:53.229Z,18.30
2018-02-15T09:05:54.091Z,17.00
2018-02-15T09:06:53.238Z,18.10
2018-02-15T09:07:53.068Z,17.70
2018-02-15T09:08:53.592Z,18.10
2018-02-15T09:09:53.114Z,18.00
2018-02-15T09:10:52.993Z,15.70
2018-02-15T09:11:52.968Z,18.40
2018-02-15T09:12:52.919Z,18.40
2018-02-15T09:13:52.877Z,16.90
2018-02-15T09:14:53.600Z,18.10
2018-02-15T09:15:52.756Z,18.30
2018-02-15T09:16:53.592Z,18.30
2018-02-15T09:17:52.677Z,17.30
2018-02-15T09:18:52.658Z,17.20
2018-02-15T09:19:52.661Z,16.50
2018-02-15T09:20:52.678Z,17.70
2018-02-15T09:21:52.525Z,17.00
2018-02-15T09:22:52.476Z,15.70
2018-02-15T09:23:52.423Z,15.70
2018-02-15T09:24:52.547Z,16.60
2018-02-15T09:25:52.318Z,15.90
2018-02-15T09:26:52.411Z,17.20
2018-02-15T09:27:53.099Z,15.70
2018-02-15T09:28:52.234Z,15.50
2018-02-15T09:29:52.261Z,15.70
2018-02-15T09:30:52.239Z,16.20
2018-02-15T09:31:52.086Z,15.70
2018-02-15T09:32:52.041Z,15.60
2018-02-15T09:33:51.972Z,15.50
2018-02-15T09:34:52.003Z,15.60
2018-02-15T09:35:51.862Z,16.00
2018-02-15T09:36:51.947Z,15.20
2018-02-15T09:37:51.789Z,15.50
2018-02-15T09:38:51.900Z,15.90
2018-02-15T09:39:51.917Z,15.40
2018-02-15T09:40:51.786Z,14.30
2018-02-15T09:41:51.646Z,15.60
2018-02-15T09:42:51.637Z,15.30
2018-02-15T09:43:51.688Z,15.40
2018-02-15T09:44:51.565Z,14.90
2018-02-15T09:45:51.457Z,15.30
2018-02-15T09:46:51.489Z,14.50
2018-02-15T09:47:51.537Z,13.90
2018-02-15T09:48:51.491Z,13.40
2018-02-15T09:49:51.325Z,14.30
2018-02-15T09:50:51.358Z,15.50
2018-02-15T09:51:52.096Z,15.50
2018-02-15T09:52:51.241Z,14.70
2018-02-15T09:53:51.284Z,15.10
2018-02-15T09:54:51.159Z,15.30
2018-02-15T09:55:51.069Z,15.20
2018-02-15T09:56:51.076Z,14.90
2018-02-15T09:57:50.984Z,15.00
2018-02-15T09:58:51.087Z,14.60
2018-02-15T09:59:50.913Z,15.10
2018-02-15T10:00:50.803Z,14.60
2018-02-15T10:01:51.599Z,25.60
2018-02-15T10:02:50.791Z,16.60
2018-02-15T10:03:50.752Z,15.00
2018-02-15T10:04:50.677Z,15.20
2018-02-15T10:05:50.747Z,14.90
2018-02-15T10:06:50.581Z,14.60
2018-02-15T10:07:50.546Z,14.50
2018-02-15T10:08:50.510Z,14.50
2018-02-15T10:09:50.472Z,14.30
2018-02-15T10:10:50.501Z,15.30
2018-02-15T10:11:50.366Z,14.10
2018-02-15T10:12:50.356Z,13.90
2018-02-15T10:13:50.457Z,15.20
2018-02-15T10:14:50.245Z,15.10
2018-02-15T10:15:50.219Z,15.00
2018-02-15T10:16:50.165Z,13.90
2018-02-15T10:17:50.276Z,14.30
2018-02-15T10:18:50.217Z,14.30
2018-02-15T10:19:50.103Z,14.70
2018-02-15T10:20:49.973Z,13.90
2018-02-15T10:21:49.969Z,14.50
2018-02-15T10:22:50.043Z,14.40
2018-02-15T10:23:49.911Z,14.30
2018-02-15T10:24:49.856Z,14.10
2018-02-15T10:25:49.799Z,14.10
2018-02-15T10:26:49.792Z,14.60
2018-02-15T10:27:49.860Z,13.80
2018-02-15T10:28:49.670Z,14.70
2018-02-15T10:29:49.626Z,13.50
2018-02-15T10:30:49.632Z,14.30
2018-02-15T10:31:49.625Z,13.80
2018-02-15T10:32:49.534Z,14.50
2018-02-15T10:33:49.484Z,14.50
2018-02-15T10:34:49.401Z,14.40
2018-02-15T10:35:49.362Z,14.90
2018-02-15T10:36:49.307Z,14.60
2018-02-15T10:37:49.413Z,14.90
2018-02-15T10:38:49.257Z,14.70
2018-02-15T10:39:49.372Z,13.40
2018-02-15T10:40:49.326Z,14.60
2018-02-15T10:41:49.206Z,14.10
2018-02-15T10:42:49.135Z,15.20
2018-02-15T10:43:49.133Z,13.50
2018-02-15T10:44:48.973Z,13.50
2018-02-15T10:45:49.009Z,14.70
2018-02-15T10:46:48.932Z,13.90
2018-02-15T10:47:48.973Z,13.10
2018-02-15T10:48:48.830Z,13.80
2018-02-15T10:49:48.766Z,14.70
2018-02-15T10:50:49.609Z,14.20
2018-02-15T10:51:48.832Z,13.60
2018-02-15T10:52:48.698Z,13.40
2018-02-15T10:53:48.635Z,14.40
2018-02-15T10:54:48.603Z,14.30
2018-02-15T10:55:48.587Z,13.70
2018-02-15T10:56:48.669Z,14.10
2018-02-15T10:57:49.106Z,14.50
2018-02-15T10:58:48.455Z,14.40
2018-02-15T10:59:48.434Z,14.20
2018-02-15T11:00:48.319Z,15.00
2018-02-15T11:01:48.324Z,14.90
2018-02-15T11:02:48.291Z,13.90
2018-02-15T11:03:48.284Z,14.10
2018-02-15T11:04:48.156Z,14.20
2018-02-15T11:05:48.240Z,14.00
2018-02-15T11:06:48.109Z,14.60
2018-02-15T11:07:48.216Z,14.30
2018-02-15T11:08:47.994Z,14.40
2018-02-15T11:09:47.969Z,14.20
2018-02-15T11:10:47.940Z,14.60
2018-02-15T11:11:47.885Z,14.70
2018-02-15T11:12:47.834Z,14.00
2018-02-15T11:13:47.794Z,14.40
2018-02-15T11:14:47.740Z,15.30
2018-02-15T11:15:47.709Z,13.90
2018-02-15T11:16:47.722Z,13.90
2018-02-15T11:17:47.641Z,14.70
2018-02-15T11:18:47.621Z,13.50
2018-02-15T11:19:47.533Z,16.30
2018-02-15T11:20:47.540Z,14.80
2018-02-15T11:21:47.496Z,14.00
2018-02-15T11:22:47.440Z,14.40
2018-02-15T11:23:47.404Z,13.70
2018-02-15T11:24:47.488Z,14.10
2018-02-15T11:25:47.304Z,12.80
2018-02-15T11:26:47.279Z,14.00
2018-02-15T11:27:47.291Z,13.30
2018-02-15T11:28:47.304Z,13.20
2018-02-15T11:29:47.146Z,13.30
2018-02-15T11:30:47.118Z,12.70
2018-02-15T11:31:47.041Z,12.70
2018-02-15T11:32:47.179Z,12.40
2018-02-15T11:33:47.141Z,12.70
2018-02-15T11:34:46.959Z,12.10
2018-02-15T11:35:46.910Z,12.40
2018-02-15T11:36:46.835Z,13.50
2018-02-15T11:37:46.800Z,13.10
2018-02-15T11:38:46.749Z,12.10
2018-02-15T11:39:46.733Z,12.30
2018-02-15T11:40:46.930Z,12.90
2018-02-15T11:41:46.825Z,11.90
2018-02-15T11:42:47.126Z,12.30
2018-02-15T11:43:46.556Z,12.40
2018-02-15T11:44:46.537Z,12.20
2018-02-15T11:45:46.613Z,11.90
2018-02-15T11:46:46.450Z,19.30
2018-02-15T11:47:46.452Z,11.80
2018-02-15T11:48:46.552Z,11.40
2018-02-15T11:49:46.511Z,11.90
2018-02-15T11:50:46.304Z,11.20
2018-02-15T11:51:46.230Z,11.30
2018-02-15T11:52:46.187Z,11.40
2018-02-15T11:53:46.177Z,11.70
2018-02-15T11:54:46.112Z,12.10
2018-02-15T11:55:46.060Z,11.50
2018-02-15T11:56:46.037Z,12.60
2018-02-15T11:57:46.002Z,12.50
2018-02-15T11:58:45.970Z,12.40
2018-02-15T11:59:45.934Z,12.00
2018-02-15T12:00:45.921Z,12.20
2018-02-15T12:01:45.804Z,12.40
2018-02-15T12:02:45.764Z,11.30
2018-02-15T12:03:45.771Z,12.20
2018-02-15T12:04:45.746Z,12.20
2018-02-15T12:05:45.676Z,12.60
2018-02-15T12:06:45.599Z,12.20
2018-02-15T12:07:45.569Z,12.40
2018-02-15T12:08:45.550Z,12.60
2018-02-15T12:09:45.513Z,12.30
2018-02-15T12:10:45.468Z,13.10
2018-02-15T12:11:45.394Z,12.50
2018-02-15T12:12:45.364Z,12.90
2018-02-15T12:13:45.467Z,12.70
2018-02-15T12:14:45.267Z,12.40
2018-02-15T12:15:45.247Z,13.00
2018-02-15T12:16:46.123Z,12.70
2018-02-15T12:17:45.286Z,13.20
2018-02-15T12:18:45.283Z,12.70
2018-02-15T12:19:45.623Z,12.10
2018-02-15T12:20:45.073Z,13.00
2018-02-15T12:21:44.970Z,13.30
2018-02-15T12:22:44.944Z,12.80
2018-02-15T12:23:44.944Z,12.20
2018-02-15T12:24:45.627Z,12.30
2018-02-15T12:25:44.914Z,12.70
2018-02-15T12:26:44.763Z,13.80
2018-02-15T12:27:44.777Z,12.30
2018-02-15T12:28:44.754Z,12.60
2018-02-15T12:29:44.680Z,13.60
2018-02-15T12:30:44.672Z,13.60
2018-02-15T12:31:44.590Z,13.10
2018-02-15T12:32:44.558Z,12.30
2018-02-15T12:33:44.516Z,12.70
2018-02-15T12:34:44.635Z,15.30
2018-02-15T12:35:44.425Z,13.50
2018-02-15T12:36:44.370Z,13.50
2018-02-15T12:37:44.340Z,14.60
2018-02-15T12:38:44.293Z,12.60
2018-02-15T12:39:44.255Z,12.50
2018-02-15T12:40:44.219Z,12.20
2018-02-15T12:41:44.168Z,12.70
2018-02-15T12:42:44.141Z,14.00
2018-02-15T12:43:44.116Z,12.70
2018-02-15T12:44:44.092Z,13.40
2018-02-15T12:45:44.015Z,13.40
2018-02-15T12:46:44.162Z,13.60
2018-02-15T12:47:43.917Z,13.40
2018-02-15T12:48:43.879Z,13.60
2018-02-15T12:49:43.832Z,14.70
2018-02-15T12:50:43.836Z,13.40
2018-02-15T12:51:43.744Z,12.90